sensor_id;sensor_type;location;lat;lon;timestamp;pressure;altitude;pressure_sealevel;temperature;humidity
18819;BME280;9537;45.594;9.294;2023-05-24T00:00:55;99340.44;;;19.68;73.24
18819;BME280;9537;45.594;9.294;2023-05-24T00:01:57;99338.03;;;19.67;73.34
18819;BME280;9537;45.594;9.294;2023-05-24T00:02:58;99342.09;;;19.69;73.05
18819;BME280;9537;45.594;9.294;2023-05-24T00:04:02;99326.50;;;19.66;72.97
18819;BME280;9537;45.594;9.294;2023-05-24T00:05:04;99333.13;;;19.64;73.12
18819;BME280;9537;45.594;9.294;2023-05-24T00:06:07;99333.03;;;19.58;73.23
18819;BME280;9537;45.594;9.294;2023-05-24T00:07:08;99335.00;;;19.51;73.44
18819;BME280;9537;45.594;9.294;2023-05-24T00:08:10;99334.09;;;19.46;73.77
18819;BME280;9537;45.594;9.294;2023-05-24T00:09:11;99332.81;;;19.48;73.71
18819;BME280;9537;45.594;9.294;2023-05-24T00:10:13;99330.72;;;19.50;73.57
18819;BME280;9537;45.594;9.294;2023-05-24T00:11:14;99321.78;;;19.45;73.02
18819;BME280;9537;45.594;9.294;2023-05-24T00:12:17;99326.00;;;19.41;73.47
18819;BME280;9537;45.594;9.294;2023-05-24T00:13:18;99324.81;;;19.36;73.73
18819;BME280;9537;45.594;9.294;2023-05-24T00:14:20;99327.16;;;19.33;73.42
18819;BME280;9537;45.594;9.294;2023-05-24T00:15:21;99324.28;;;19.34;73.36
18819;BME280;9537;45.594;9.294;2023-05-24T00:16:23;99323.69;;;19.32;73.66
18819;BME280;9537;45.594;9.294;2023-05-24T00:17:24;99324.50;;;19.33;73.92
18819;BME280;9537;45.594;9.294;2023-05-24T00:18:27;99327.75;;;19.35;73.85
18819;BME280;9537;45.594;9.294;2023-05-24T00:19:30;99319.72;;;19.35;73.90
18819;BME280;9537;45.594;9.294;2023-05-24T00:20:32;99331.00;;;19.37;73.96
18819;BME280;9537;45.594;9.294;2023-05-24T00:21:33;99329.16;;;19.38;74.26
18819;BME280;9537;45.594;9.294;2023-05-24T00:22:36;99327.75;;;19.35;74.40
18819;BME280;9537;45.594;9.294;2023-05-24T00:23:37;99326.94;;;19.34;74.63
18819;BME280;9537;45.594;9.294;2023-05-24T00:24:39;99328.47;;;19.30;74.63
18819;BME280;9537;45.594;9.294;2023-05-24T00:25:40;99323.91;;;19.31;74.71
18819;BME280;9537;45.594;9.294;2023-05-24T00:26:42;99324.72;;;19.31;74.84
18819;BME280;9537;45.594;9.294;2023-05-24T00:27:45;99328.22;;;19.32;74.70
18819;BME280;9537;45.594;9.294;2023-05-24T00:28:47;99320.69;;;19.29;74.48
18819;BME280;9537;45.594;9.294;2023-05-24T00:29:48;99318.81;;;19.29;74.51
18819;BME280;9537;45.594;9.294;2023-05-24T00:30:49;99328.13;;;19.27;74.49
18819;BME280;9537;45.594;9.294;2023-05-24T00:31:50;99323.00;;;19.25;74.44
18819;BME280;9537;45.594;9.294;2023-05-24T00:32:52;99320.56;;;19.24;74.45
18819;BME280;9537;45.594;9.294;2023-05-24T00:33:53;99317.31;;;19.22;74.30
18819;BME280;9537;45.594;9.294;2023-05-24T00:34:55;99317.78;;;19.19;74.21
18819;BME280;9537;45.594;9.294;2023-05-24T00:35:56;99322.34;;;19.18;74.45
18819;BME280;9537;45.594;9.294;2023-05-24T00:36:58;99319.41;;;19.20;74.26
18819;BME280;9537;45.594;9.294;2023-05-24T00:38:00;99325.72;;;19.13;74.65
18819;BME280;9537;45.594;9.294;2023-05-24T00:39:02;99318.97;;;19.11;74.86
18819;BME280;9537;45.594;9.294;2023-05-24T00:40:05;99323.19;;;19.07;75.17
18819;BME280;9537;45.594;9.294;2023-05-24T00:41:07;99321.19;;;19.02;75.77
18819;BME280;9537;45.594;9.294;2023-05-24T00:42:08;99324.13;;;19.01;75.74
18819;BME280;9537;45.594;9.294;2023-05-24T00:43:11;99321.91;;;18.98;75.89
18819;BME280;9537;45.594;9.294;2023-05-24T00:44:12;99319.25;;;18.98;76.05
18819;BME280;9537;45.594;9.294;2023-05-24T00:45:14;99323.78;;;18.97;76.14
18819;BME280;9537;45.594;9.294;2023-05-24T00:46:17;99322.72;;;18.98;76.07
18819;BME280;9537;45.594;9.294;2023-05-24T00:47:20;99318.78;;;19.01;76.07
18819;BME280;9537;45.594;9.294;2023-05-24T00:48:21;99323.06;;;19.02;76.20
18819;BME280;9537;45.594;9.294;2023-05-24T00:49:27;99323.88;;;19.02;76.11
18819;BME280;9537;45.594;9.294;2023-05-24T00:50:28;99319.31;;;19.03;76.13
18819;BME280;9537;45.594;9.294;2023-05-24T00:51:31;99320.72;;;19.05;75.89
18819;BME280;9537;45.594;9.294;2023-05-24T00:52:33;99323.75;;;19.09;75.68
18819;BME280;9537;45.594;9.294;2023-05-24T00:53:36;99325.03;;;19.06;75.71
18819;BME280;9537;45.594;9.294;2023-05-24T00:54:37;99330.63;;;19.05;75.56
18819;BME280;9537;45.594;9.294;2023-05-24T00:55:40;99325.53;;;19.03;75.83
18819;BME280;9537;45.594;9.294;2023-05-24T00:56:41;99322.00;;;19.03;75.96
18819;BME280;9537;45.594;9.294;2023-05-24T00:57:43;99324.34;;;18.99;76.00
18819;BME280;9537;45.594;9.294;2023-05-24T00:58:46;99318.78;;;19.01;75.86
18819;BME280;9537;45.594;9.294;2023-05-24T00:59:50;99317.72;;;19.02;75.92
18819;BME280;9537;45.594;9.294;2023-05-24T01:00:52;99317.72;;;19.02;75.84
18819;BME280;9537;45.594;9.294;2023-05-24T01:01:58;99315.50;;;18.99;75.62
18819;BME280;9537;45.594;9.294;2023-05-24T01:02:59;99322.41;;;18.95;75.50
18819;BME280;9537;45.594;9.294;2023-05-24T01:04:02;99322.63;;;18.93;75.53
18819;BME280;9537;45.594;9.294;2023-05-24T01:05:03;99321.22;;;18.90;75.40
18819;BME280;9537;45.594;9.294;2023-05-24T01:06:07;99331.81;;;18.85;75.49
18819;BME280;9537;45.594;9.294;2023-05-24T01:07:15;99325.91;;;18.83;75.81
18819;BME280;9537;45.594;9.294;2023-05-24T01:08:31;99322.75;;;18.86;75.70
18819;BME280;9537;45.594;9.294;2023-05-24T01:09:47;99322.97;;;18.85;75.75
18819;BME280;9537;45.594;9.294;2023-05-24T01:10:56;99319.75;;;18.83;76.13
18819;BME280;9537;45.594;9.294;2023-05-24T01:12:09;99320.53;;;18.83;76.04
18819;BME280;9537;45.594;9.294;2023-05-24T01:13:28;99314.28;;;18.78;75.91
18819;BME280;9537;45.594;9.294;2023-05-24T01:14:37;99315.19;;;18.72;75.89
18819;BME280;9537;45.594;9.294;2023-05-24T01:15:48;99316.00;;;18.72;75.95
18819;BME280;9537;45.594;9.294;2023-05-24T01:16:55;99316.22;;;18.71;75.85
18819;BME280;9537;45.594;9.294;2023-05-24T01:18:03;99325.50;;;18.68;76.25
18819;BME280;9537;45.594;9.294;2023-05-24T01:19:18;99325.16;;;18.64;76.38
18819;BME280;9537;45.594;9.294;2023-05-24T01:20:32;99318.69;;;18.60;76.37
18819;BME280;9537;45.594;9.294;2023-05-24T01:21:43;99323.56;;;18.63;76.36
18819;BME280;9537;45.594;9.294;2023-05-24T01:23:11;99319.47;;;18.61;76.50
18819;BME280;9537;45.594;9.294;2023-05-24T01:24:24;99321.56;;;18.59;76.74
18819;BME280;9537;45.594;9.294;2023-05-24T01:25:47;99309.72;;;18.55;76.67
18819;BME280;9537;45.594;9.294;2023-05-24T01:27:04;99314.00;;;18.56;76.80
18819;BME280;9537;45.594;9.294;2023-05-24T01:28:07;99313.78;;;18.57;76.69
18819;BME280;9537;45.594;9.294;2023-05-24T01:29:09;99315.41;;;18.58;76.80
18819;BME280;9537;45.594;9.294;2023-05-24T01:30:11;99315.41;;;18.58;76.60
18819;BME280;9537;45.594;9.294;2023-05-24T01:31:14;99323.78;;;18.62;76.71
18819;BME280;9537;45.594;9.294;2023-05-24T01:32:16;99311.00;;;18.64;76.47
18819;BME280;9537;45.594;9.294;2023-05-24T01:33:19;99311.81;;;18.64;76.58
18819;BME280;9537;45.594;9.294;2023-05-24T01:34:20;99315.28;;;18.65;76.36
18819;BME280;9537;45.594;9.294;2023-05-24T01:35:22;99316.09;;;18.65;76.47
18819;BME280;9537;45.594;9.294;2023-05-24T01:36:23;99314.72;;;18.63;76.25
18819;BME280;9537;45.594;9.294;2023-05-24T01:37:25;99317.84;;;18.60;76.26
18819;BME280;9537;45.594;9.294;2023-05-24T01:38:26;99319.94;;;18.58;76.20
18819;BME280;9537;45.594;9.294;2023-05-24T01:39:28;99322.97;;;18.50;76.52
18819;BME280;9537;45.594;9.294;2023-05-24T01:40:29;99326.13;;;18.46;76.83
18819;BME280;9537;45.594;9.294;2023-05-24T01:41:37;99316.44;;;18.45;77.05
18819;BME280;9537;45.594;9.294;2023-05-24T01:42:46;99321.44;;;18.42;77.47
18819;BME280;9537;45.594;9.294;2023-05-24T01:43:59;99324.94;;;18.42;77.25
18819;BME280;9537;45.594;9.294;2023-05-24T01:45:10;99327.03;;;18.40;77.54
18819;BME280;9537;45.594;9.294;2023-05-24T01:46:18;99329.25;;;18.43;77.40
18819;BME280;9537;45.594;9.294;2023-05-24T01:47:27;99327.59;;;18.42;77.50
18819;BME280;9537;45.594;9.294;2023-05-24T01:48:40;99325.53;;;18.44;77.55
18819;BME280;9537;45.594;9.294;2023-05-24T01:49:49;99334.59;;;18.43;77.68
18819;BME280;9537;45.594;9.294;2023-05-24T01:50:55;99329.25;;;18.43;78.00
18819;BME280;9537;45.594;9.294;2023-05-24T01:51:58;99321.44;;;18.42;78.08
18819;BME280;9537;45.594;9.294;2023-05-24T01:53:05;99329.25;;;18.43;78.04
18819;BME280;9537;45.594;9.294;2023-05-24T01:54:08;99332.16;;;18.42;77.47
18819;BME280;9537;45.594;9.294;2023-05-24T01:55:12;99333.19;;;18.41;77.17
18819;BME280;9537;45.594;9.294;2023-05-24T01:56:16;99332.16;;;18.42;77.02
18819;BME280;9537;45.594;9.294;2023-05-24T01:57:20;99327.97;;;18.46;76.80
18819;BME280;9537;45.594;9.294;2023-05-24T01:58:24;99333.31;;;18.46;76.55
18819;BME280;9537;45.594;9.294;2023-05-24T01:59:28;99326.13;;;18.46;76.58
18819;BME280;9537;45.594;9.294;2023-05-24T02:00:32;99325.88;;;18.48;76.32
18819;BME280;9537;45.594;9.294;2023-05-24T02:01:35;99328.31;;;18.50;76.44
18819;BME280;9537;45.594;9.294;2023-05-24T02:02:36;99328.91;;;18.52;76.15
18819;BME280;9537;45.594;9.294;2023-05-24T02:03:39;99323.78;;;18.50;76.39
18819;BME280;9537;45.594;9.294;2023-05-24T02:04:40;99324.59;;;18.51;76.28
18819;BME280;9537;45.594;9.294;2023-05-24T02:05:42;99326.44;;;18.50;76.48
18819;BME280;9537;45.594;9.294;2023-05-24T02:06:43;99322.97;;;18.50;76.23
18819;BME280;9537;45.594;9.294;2023-05-24T02:07:45;99324.25;;;18.47;76.33
18819;BME280;9537;45.594;9.294;2023-05-24T02:08:46;99324.94;;;18.42;76.60
18819;BME280;9537;45.594;9.294;2023-05-24T02:09:48;99327.50;;;18.37;76.82
18819;BME280;9537;45.594;9.294;2023-05-24T02:10:49;99324.00;;;18.37;76.64
18819;BME280;9537;45.594;9.294;2023-05-24T02:11:51;99326.31;;;18.33;76.95
18819;BME280;9537;45.594;9.294;2023-05-24T02:12:52;99322.38;;;18.36;77.02
18819;BME280;9537;45.594;9.294;2023-05-24T02:13:55;99324.84;;;18.37;76.86
18819;BME280;9537;45.594;9.294;2023-05-24T02:14:56;99327.59;;;18.31;77.05
18819;BME280;9537;45.594;9.294;2023-05-24T02:15:59;99324.94;;;18.31;77.19
18819;BME280;9537;45.594;9.294;2023-05-24T02:17:00;99326.19;;;18.28;77.49
18819;BME280;9537;45.594;9.294;2023-05-24T02:18:02;99323.78;;;18.27;77.50
18819;BME280;9537;45.594;9.294;2023-05-24T02:19:03;99326.31;;;18.21;77.76
18819;BME280;9537;45.594;9.294;2023-05-24T02:20:07;99327.84;;;18.17;77.96
18819;BME280;9537;45.594;9.294;2023-05-24T02:21:08;99332.25;;;18.12;78.76
18819;BME280;9537;45.594;9.294;2023-05-24T02:22:10;99333.50;;;18.09;78.93
18819;BME280;9537;45.594;9.294;2023-05-24T02:23:12;99326.53;;;18.08;79.09
18819;BME280;9537;45.594;9.294;2023-05-24T02:24:14;99329.19;;;18.08;79.42
18819;BME280;9537;45.594;9.294;2023-05-24T02:25:16;99329.19;;;18.08;79.25
18819;BME280;9537;45.594;9.294;2023-05-24T02:26:18;99330.59;;;18.11;79.35
18819;BME280;9537;45.594;9.294;2023-05-24T02:27:19;99327.34;;;18.09;79.44
18819;BME280;9537;45.594;9.294;2023-05-24T02:28:21;99329.78;;;18.10;79.19
18819;BME280;9537;45.594;9.294;2023-05-24T02:29:23;99329.78;;;18.10;79.31
18819;BME280;9537;45.594;9.294;2023-05-24T02:30:25;99333.06;;;18.12;79.30
18819;BME280;9537;45.594;9.294;2023-05-24T02:31:26;99325.03;;;18.12;79.28
18819;BME280;9537;45.594;9.294;2023-05-24T02:32:29;99332.59;;;18.15;79.05
18819;BME280;9537;45.594;9.294;2023-05-24T02:33:30;99320.28;;;18.14;78.83
18819;BME280;9537;45.594;9.294;2023-05-24T02:34:33;99332.81;;;18.14;78.78
18819;BME280;9537;45.594;9.294;2023-05-24T02:35:34;99332.81;;;18.14;78.56
18819;BME280;9537;45.594;9.294;2023-05-24T02:36:36;99336.53;;;18.13;78.64
18819;BME280;9537;45.594;9.294;2023-05-24T02:37:37;99332.25;;;18.12;78.89
18819;BME280;9537;45.594;9.294;2023-05-24T02:38:39;99326.66;;;18.13;78.77
18819;BME280;9537;45.594;9.294;2023-05-24T02:39:40;99329.78;;;18.10;78.94
18819;BME280;9537;45.594;9.294;2023-05-24T02:40:42;99330.25;;;18.07;78.97
18819;BME280;9537;45.594;9.294;2023-05-24T02:41:43;99331.53;;;18.05;78.93
18819;BME280;9537;45.594;9.294;2023-05-24T02:42:45;99338.38;;;18.00;79.04
18819;BME280;9537;45.594;9.294;2023-05-24T02:43:46;99334.06;;;17.99;79.08
18819;BME280;9537;45.594;9.294;2023-05-24T02:44:50;99330.81;;;17.97;79.05
18819;BME280;9537;45.594;9.294;2023-05-24T02:45:52;99329.97;;;17.97;79.06
18819;BME280;9537;45.594;9.294;2023-05-24T02:46:54;99328.97;;;17.98;79.06
18819;BME280;9537;45.594;9.294;2023-05-24T02:47:54;99323.97;;;18.01;78.86
18819;BME280;9537;45.594;9.294;2023-05-24T02:48:56;99325.81;;;18.01;78.92
18819;BME280;9537;45.594;9.294;2023-05-24T02:49:58;99325.22;;;17.99;79.16
18819;BME280;9537;45.594;9.294;2023-05-24T02:50:59;99326.63;;;18.01;79.08
18819;BME280;9537;45.594;9.294;2023-05-24T02:52:03;99322.09;;;18.02;79.06
18819;BME280;9537;45.594;9.294;2023-05-24T02:53:05;99323.38;;;17.99;79.20
18819;BME280;9537;45.594;9.294;2023-05-24T02:54:06;99322.81;;;17.97;79.14
18819;BME280;9537;45.594;9.294;2023-05-24T02:55:08;99319.53;;;17.95;79.21
18819;BME280;9537;45.594;9.294;2023-05-24T02:56:10;99319.28;;;17.97;79.06
18819;BME280;9537;45.594;9.294;2023-05-24T02:57:13;99317.66;;;17.96;79.00
18819;BME280;9537;45.594;9.294;2023-05-24T02:58:14;99315.34;;;17.99;78.93
18819;BME280;9537;45.594;9.294;2023-05-24T02:59:17;99311.41;;;18.02;78.81
18819;BME280;9537;45.594;9.294;2023-05-24T03:00:19;99320.13;;;17.97;78.94
18819;BME280;9537;45.594;9.294;2023-05-24T03:01:22;99315.00;;;17.96;79.12
18819;BME280;9537;45.594;9.294;2023-05-24T03:02:23;99313.38;;;17.95;79.26
18819;BME280;9537;45.594;9.294;2023-05-24T03:03:28;99315.91;;;17.90;79.68
18819;BME280;9537;45.594;9.294;2023-05-24T03:04:30;99313.94;;;17.85;80.02
18819;BME280;9537;45.594;9.294;2023-05-24T03:05:32;99317.28;;;17.81;80.19
18819;BME280;9537;45.594;9.294;2023-05-24T03:06:32;99314.63;;;17.81;80.40
18819;BME280;9537;45.594;9.294;2023-05-24T03:07:35;99310.91;;;17.82;80.32
18819;BME280;9537;45.594;9.294;2023-05-24T03:08:36;99314.16;;;17.84;80.39
18819;BME280;9537;45.594;9.294;2023-05-24T03:09:38;99312.31;;;17.84;80.26
18819;BME280;9537;45.594;9.294;2023-05-24T03:10:39;99309.63;;;17.84;80.09
18819;BME280;9537;45.594;9.294;2023-05-24T03:11:41;99311.84;;;17.87;79.99
18819;BME280;9537;45.594;9.294;2023-05-24T03:12:42;99309.97;;;17.88;79.45
18819;BME280;9537;45.594;9.294;2023-05-24T03:13:44;99311.25;;;17.85;79.79
18819;BME280;9537;45.594;9.294;2023-05-24T03:14:45;99313.94;;;17.85;79.75
18819;BME280;9537;45.594;9.294;2023-05-24T03:15:48;99311.50;;;17.84;79.65
18819;BME280;9537;45.594;9.294;2023-05-24T03:16:49;99304.28;;;17.84;79.59
18819;BME280;9537;45.594;9.294;2023-05-24T03:17:51;99312.09;;;17.86;79.65
18819;BME280;9537;45.594;9.294;2023-05-24T03:18:52;99314.97;;;17.84;79.70
18819;BME280;9537;45.594;9.294;2023-05-24T03:19:55;99313.94;;;17.85;79.46
18819;BME280;9537;45.594;9.294;2023-05-24T03:20:55;99312.09;;;17.86;79.16
18819;BME280;9537;45.594;9.294;2023-05-24T03:21:57;99312.91;;;17.86;79.00
18819;BME280;9537;45.594;9.294;2023-05-24T03:22:58;99314.53;;;17.87;78.99
18819;BME280;9537;45.594;9.294;2023-05-24T03:24:00;99316.13;;;17.88;78.89
18819;BME280;9537;45.594;9.294;2023-05-24T03:25:01;99317.19;;;17.87;79.02
18819;BME280;9537;45.594;9.294;2023-05-24T03:26:03;99314.06;;;17.90;78.95
18819;BME280;9537;45.594;9.294;2023-05-24T03:27:04;99313.84;;;17.92;78.61
18819;BME280;9537;45.594;9.294;2023-05-24T03:28:06;99319.41;;;17.90;78.73
18819;BME280;9537;45.594;9.294;2023-05-24T03:29:07;99314.31;;;17.89;78.86
18819;BME280;9537;45.594;9.294;2023-05-24T03:30:10;99323.59;;;17.86;78.98
18819;BME280;9537;45.594;9.294;2023-05-24T03:31:12;99323.81;;;17.85;78.91
18819;BME280;9537;45.594;9.294;2023-05-24T03:32:14;99320.19;;;17.79;78.93
18819;BME280;9537;45.594;9.294;2023-05-24T03:33:15;99318.19;;;17.74;79.15
18819;BME280;9537;45.594;9.294;2023-05-24T03:34:17;99319.44;;;17.72;79.27
18819;BME280;9537;45.594;9.294;2023-05-24T03:35:18;99323.53;;;17.74;79.18
18819;BME280;9537;45.594;9.294;2023-05-24T03:36:20;99319.44;;;17.72;79.25
18819;BME280;9537;45.594;9.294;2023-05-24T03:37:22;99321.97;;;17.67;79.43
18819;BME280;9537;45.594;9.294;2023-05-24T03:38:23;99324.06;;;17.65;79.47
18819;BME280;9537;45.594;9.294;2023-05-24T03:39:25;99330.00;;;17.67;79.40
18819;BME280;9537;45.594;9.294;2023-05-24T03:40:26;99322.19;;;17.65;79.29
18819;BME280;9537;45.594;9.294;2023-05-24T03:41:31;99331.25;;;17.64;79.38
18819;BME280;9537;45.594;9.294;2023-05-24T03:42:32;99325.31;;;17.62;79.48
18819;BME280;9537;45.594;9.294;2023-05-24T03:43:34;99318.16;;;17.63;79.29
18819;BME280;9537;45.594;9.294;2023-05-24T03:44:36;99330.09;;;17.60;79.40
18819;BME280;9537;45.594;9.294;2023-05-24T03:45:38;99324.97;;;17.59;79.51
18819;BME280;9537;45.594;9.294;2023-05-24T03:46:40;99326.03;;;17.58;79.59
18819;BME280;9537;45.594;9.294;2023-05-24T03:47:42;99334.25;;;17.56;79.87
18819;BME280;9537;45.594;9.294;2023-05-24T03:48:43;99335.44;;;17.60;79.74
18819;BME280;9537;45.594;9.294;2023-05-24T03:49:45;99328.00;;;17.62;79.43
18819;BME280;9537;45.594;9.294;2023-05-24T03:50:46;99335.34;;;17.67;79.36
18819;BME280;9537;45.594;9.294;2023-05-24T03:51:48;99326.50;;;17.66;79.43
18819;BME280;9537;45.594;9.294;2023-05-24T03:52:49;99336.38;;;17.66;79.37
18819;BME280;9537;45.594;9.294;2023-05-24T03:53:52;99332.41;;;17.68;79.49
18819;BME280;9537;45.594;9.294;2023-05-24T03:54:52;99329.75;;;17.68;79.25
18819;BME280;9537;45.594;9.294;2023-05-24T03:55:54;99346.38;;;17.70;79.29
18819;BME280;9537;45.594;9.294;2023-05-24T03:56:55;99331.75;;;17.73;79.27
18819;BME280;9537;45.594;9.294;2023-05-24T03:57:57;99329.25;;;17.78;78.94
18819;BME280;9537;45.594;9.294;2023-05-24T03:58:58;99336.63;;;17.76;78.72
18819;BME280;9537;45.594;9.294;2023-05-24T04:00:04;99340.81;;;17.72;78.76
18819;BME280;9537;45.594;9.294;2023-05-24T04:01:06;99341.47;;;17.67;78.84
18819;BME280;9537;45.594;9.294;2023-05-24T04:02:10;99340.69;;;17.67;78.79
18819;BME280;9537;45.594;9.294;2023-05-24T04:03:10;99339.88;;;17.66;78.78
18819;BME280;9537;45.594;9.294;2023-05-24T04:04:12;99342.75;;;17.65;78.88
18819;BME280;9537;45.594;9.294;2023-05-24T04:05:13;99337.06;;;17.61;78.89
18819;BME280;9537;45.594;9.294;2023-05-24T04:06:15;99331.56;;;17.56;79.20
18819;BME280;9537;45.594;9.294;2023-05-24T04:07:16;99335.88;;;17.57;79.43
18819;BME280;9537;45.594;9.294;2023-05-24T04:08:19;99338.31;;;17.59;79.24
18819;BME280;9537;45.594;9.294;2023-05-24T04:09:22;99341.00;;;17.59;79.50
18819;BME280;9537;45.594;9.294;2023-05-24T04:10:24;99334.25;;;17.56;79.55
18819;BME280;9537;45.594;9.294;2023-05-24T04:11:25;99334.47;;;17.54;79.62
18819;BME280;9537;45.594;9.294;2023-05-24T04:12:27;99340.03;;;17.53;79.85
18819;BME280;9537;45.594;9.294;2023-05-24T04:13:28;99341.53;;;17.49;79.94
18819;BME280;9537;45.594;9.294;2023-05-24T04:14:30;99346.50;;;17.45;79.97
18819;BME280;9537;45.594;9.294;2023-05-24T04:15:32;99341.38;;;17.44;80.02
18819;BME280;9537;45.594;9.294;2023-05-24T04:16:34;99346.72;;;17.44;80.07
18819;BME280;9537;45.594;9.294;2023-05-24T04:17:36;99345.31;;;17.41;80.18
18819;BME280;9537;45.594;9.294;2023-05-24T04:18:38;99338.13;;;17.42;80.24
18819;BME280;9537;45.594;9.294;2023-05-24T04:19:39;99341.59;;;17.42;80.22
18819;BME280;9537;45.594;9.294;2023-05-24T04:20:41;99336.41;;;17.47;79.97
18819;BME280;9537;45.594;9.294;2023-05-24T04:21:42;99344.56;;;17.52;79.68
18819;BME280;9537;45.594;9.294;2023-05-24T04:22:44;99341.22;;;17.57;79.51
18819;BME280;9537;45.594;9.294;2023-05-24T04:23:45;99343.91;;;17.57;79.60
18819;BME280;9537;45.594;9.294;2023-05-24T04:24:47;99345.16;;;17.54;79.87
18819;BME280;9537;45.594;9.294;2023-05-24T04:25:48;99341.91;;;17.52;80.04
18819;BME280;9537;45.594;9.294;2023-05-24T04:26:50;99347.84;;;17.54;80.18
18819;BME280;9537;45.594;9.294;2023-05-24T04:27:51;99347.38;;;17.58;80.06
18819;BME280;9537;45.594;9.294;2023-05-24T04:28:53;99339.94;;;17.60;80.03
18819;BME280;9537;45.594;9.294;2023-05-24T04:29:54;99345.97;;;17.55;80.01
18819;BME280;9537;45.594;9.294;2023-05-24T04:30:57;99347.22;;;17.52;80.05
18819;BME280;9537;45.594;9.294;2023-05-24T04:31:58;99349.31;;;17.50;80.12
18819;BME280;9537;45.594;9.294;2023-05-24T04:33:02;99352.22;;;17.49;80.33
18819;BME280;9537;45.594;9.294;2023-05-24T04:34:03;99345.91;;;17.43;80.62
18819;BME280;9537;45.594;9.294;2023-05-24T04:35:07;99350.56;;;17.48;80.68
18819;BME280;9537;45.594;9.294;2023-05-24T04:36:09;99351.75;;;17.52;80.67
18819;BME280;9537;45.594;9.294;2023-05-24T04:37:11;99355.25;;;17.52;80.82
18819;BME280;9537;45.594;9.294;2023-05-24T04:38:13;99350.13;;;17.51;81.00
18819;BME280;9537;45.594;9.294;2023-05-24T04:39:15;99349.66;;;17.54;80.69
18819;BME280;9537;45.594;9.294;2023-05-24T04:40:16;99350.06;;;17.58;80.74
18819;BME280;9537;45.594;9.294;2023-05-24T04:41:20;99353.06;;;17.61;80.67
18819;BME280;9537;45.594;9.294;2023-05-24T04:42:22;99351.00;;;17.63;80.68
18819;BME280;9537;45.594;9.294;2023-05-24T04:43:24;99355.09;;;17.66;80.78
18819;BME280;9537;45.594;9.294;2023-05-24T04:44:25;99351.81;;;17.64;81.02
18819;BME280;9537;45.594;9.294;2023-05-24T04:45:27;99349.34;;;17.62;80.96
18819;BME280;9537;45.594;9.294;2023-05-24T04:46:30;99353.69;;;17.63;81.11
18819;BME280;9537;45.594;9.294;2023-05-24T04:47:31;99351.22;;;17.62;81.23
18819;BME280;9537;45.594;9.294;2023-05-24T04:48:34;99358.41;;;17.61;81.25
18819;BME280;9537;45.594;9.294;2023-05-24T04:49:35;99358.41;;;17.61;81.16
18819;BME280;9537;45.594;9.294;2023-05-24T04:50:38;99352.47;;;17.59;81.14
18819;BME280;9537;45.594;9.294;2023-05-24T04:51:40;99363.16;;;17.59;81.36
18819;BME280;9537;45.594;9.294;2023-05-24T04:52:41;99358.63;;;17.60;81.43
18819;BME280;9537;45.594;9.294;2023-05-24T04:53:43;99351.47;;;17.60;81.51
18819;BME280;9537;45.594;9.294;2023-05-24T04:54:44;99356.56;;;17.62;81.56
18819;BME280;9537;45.594;9.294;2023-05-24T04:55:46;99362.50;;;17.64;81.54
18819;BME280;9537;45.594;9.294;2023-05-24T04:56:47;99359.81;;;17.64;81.54
18819;BME280;9537;45.594;9.294;2023-05-24T04:57:49;99358.78;;;17.65;81.67
18819;BME280;9537;45.594;9.294;2023-05-24T04:58:51;99357.75;;;17.66;81.69
18819;BME280;9537;45.594;9.294;2023-05-24T04:59:52;99360.78;;;17.69;81.76
18819;BME280;9537;45.594;9.294;2023-05-24T05:00:54;99356.59;;;17.73;81.66
18819;BME280;9537;45.594;9.294;2023-05-24T05:01:55;99357.41;;;17.74;81.34
18819;BME280;9537;45.594;9.294;2023-05-24T05:02:57;99355.13;;;17.77;81.31
18819;BME280;9537;45.594;9.294;2023-05-24T05:04:01;99360.84;;;17.81;81.41
18819;BME280;9537;45.594;9.294;2023-05-24T05:05:05;99359.59;;;17.84;82.03
18819;BME280;9537;45.594;9.294;2023-05-24T05:06:07;99356.09;;;17.83;82.29
18819;BME280;9537;45.594;9.294;2023-05-24T05:07:08;99362.00;;;17.85;82.48
18819;BME280;9537;45.594;9.294;2023-05-24T05:08:10;99361.81;;;17.87;82.43
18819;BME280;9537;45.594;9.294;2023-05-24T05:09:11;99360.75;;;17.88;82.45
18819;BME280;9537;45.594;9.294;2023-05-24T05:10:14;99360.75;;;17.88;82.85
18819;BME280;9537;45.594;9.294;2023-05-24T05:11:15;99362.84;;;17.86;82.82
18819;BME280;9537;45.594;9.294;2023-05-24T05:12:18;99366.69;;;17.90;82.66
18819;BME280;9537;45.594;9.294;2023-05-24T05:13:19;99361.13;;;17.91;82.47
18819;BME280;9537;45.594;9.294;2023-05-24T05:14:21;99362.16;;;17.90;82.60
18819;BME280;9537;45.594;9.294;2023-05-24T05:15:22;99358.06;;;17.88;83.55
18819;BME280;9537;45.594;9.294;2023-05-24T05:16:25;99367.13;;;17.87;84.11
18819;BME280;9537;45.594;9.294;2023-05-24T05:17:26;99374.34;;;17.86;84.70
18819;BME280;9537;45.594;9.294;2023-05-24T05:18:28;99362.59;;;17.87;85.31
18819;BME280;9537;45.594;9.294;2023-05-24T05:19:30;99365.06;;;17.89;85.37
18819;BME280;9537;45.594;9.294;2023-05-24T05:20:32;99369.16;;;17.91;85.85
18819;BME280;9537;45.594;9.294;2023-05-24T05:21:33;99369.72;;;17.93;86.12
18819;BME280;9537;45.594;9.294;2023-05-24T05:22:35;99364.97;;;17.95;86.38
18819;BME280;9537;45.594;9.294;2023-05-24T05:23:37;99362.88;;;17.97;86.28
18819;BME280;9537;45.594;9.294;2023-05-24T05:24:39;99362.63;;;17.99;86.60
18819;BME280;9537;45.594;9.294;2023-05-24T05:25:41;99361.63;;;18.00;87.07
18819;BME280;9537;45.594;9.294;2023-05-24T05:26:42;99365.66;;;18.02;87.23
18819;BME280;9537;45.594;9.294;2023-05-24T05:27:44;99362.78;;;18.04;87.44
18819;BME280;9537;45.594;9.294;2023-05-24T05:28:46;99354.75;;;18.04;87.61
18819;BME280;9537;45.594;9.294;2023-05-24T05:29:47;99357.44;;;18.04;87.72
18819;BME280;9537;45.594;9.294;2023-05-24T05:30:49;99353.69;;;18.05;87.85
18819;BME280;9537;45.594;9.294;2023-05-24T05:31:49;99360.44;;;18.08;87.88
18819;BME280;9537;45.594;9.294;2023-05-24T05:32:51;99362.66;;;18.11;87.82
18819;BME280;9537;45.594;9.294;2023-05-24T05:33:52;99359.78;;;18.12;86.92
18819;BME280;9537;45.594;9.294;2023-05-24T05:34:56;99367.56;;;18.14;86.09
18819;BME280;9537;45.594;9.294;2023-05-24T05:35:57;99370.81;;;18.16;85.71
18819;BME280;9537;45.594;9.294;2023-05-24T05:36:58;99371.16;;;18.19;84.82